sensor_id;sensor_type;location;lat;lon;timestamp;P1;durP1;ratioP1;P2;durP2;ratioP2
28802;SDS011;15949;55.656;37.422;2022-12-07T00:01:19;13.65;;;4.70;;
28802;SDS011;15949;55.656;37.422;2022-12-07T00:06:28;11.43;;;4.38;;
28802;SDS011;15949;55.656;37.422;2022-12-07T00:11:34;7.15;;;3.92;;
28802;SDS011;15949;55.656;37.422;2022-12-07T00:16:40;10.68;;;4.78;;
28802;SDS011;15949;55.656;37.422;2022-12-07T00:21:46;13.20;;;5.00;;
28802;SDS011;15949;55.656;37.422;2022-12-07T00:26:52;16.48;;;5.25;;
28802;SDS011;15949;55.656;37.422;2022-12-07T00:31:57;11.63;;;4.85;;
28802;SDS011;15949;55.656;37.422;2022-12-07T00:37:03;11.93;;;5.10;;
28802;SDS011;15949;55.656;37.422;2022-12-07T00:42:08;12.13;;;4.78;;
28802;SDS011;15949;55.656;37.422;2022-12-07T00:47:14;11.68;;;4.70;;
28802;SDS011;15949;55.656;37.422;2022-12-07T00:52:20;9.15;;;4.53;;
28802;SDS011;15949;55.656;37.422;2022-12-07T00:57:25;11.05;;;4.50;;
28802;SDS011;15949;55.656;37.422;2022-12-07T01:02:31;9.95;;;4.38;;
28802;SDS011;15949;55.656;37.422;2022-12-07T01:07:36;12.60;;;4.57;;
28802;SDS011;15949;55.656;37.422;2022-12-07T01:12:42;8.70;;;4.70;;
28802;SDS011;15949;55.656;37.422;2022-12-07T01:17:48;10.27;;;5.07;;
28802;SDS011;15949;55.656;37.422;2022-12-07T01:22:53;10.05;;;4.97;;
28802;SDS011;15949;55.656;37.422;2022-12-07T01:27:59;9.15;;;4.60;;
28802;SDS011;15949;55.656;37.422;2022-12-07T01:33:05;8.68;;;4.45;;
28802;SDS011;15949;55.656;37.422;2022-12-07T01:38:10;10.82;;;4.93;;
28802;SDS011;15949;55.656;37.422;2022-12-07T01:43:16;11.55;;;5.00;;
28802;SDS011;15949;55.656;37.422;2022-12-07T01:53:45;9.35;;;4.75;;
28802;SDS011;15949;55.656;37.422;2022-12-07T01:58:51;10.13;;;4.95;;
28802;SDS011;15949;55.656;37.422;2022-12-07T02:03:58;11.32;;;4.85;;
28802;SDS011;15949;55.656;37.422;2022-12-07T02:09:04;10.05;;;4.47;;
28802;SDS011;15949;55.656;37.422;2022-12-07T02:14:09;10.27;;;4.97;;
28802;SDS011;15949;55.656;37.422;2022-12-07T02:19:30;10.38;;;4.53;;
28802;SDS011;15949;55.656;37.422;2022-12-07T02:30:31;8.55;;;4.07;;
28802;SDS011;15949;55.656;37.422;2022-12-07T02:35:47;13.30;;;4.57;;
28802;SDS011;15949;55.656;37.422;2022-12-07T02:41:02;8.27;;;4.10;;
28802;SDS011;15949;55.656;37.422;2022-12-07T02:46:17;14.85;;;5.35;;
28802;SDS011;15949;55.656;37.422;2022-12-07T02:51:31;9.70;;;4.68;;
28802;SDS011;15949;55.656;37.422;2022-12-07T03:18:11;10.80;;;5.18;;
28802;SDS011;15949;55.656;37.422;2022-12-07T03:23:20;9.10;;;4.63;;
28802;SDS011;15949;55.656;37.422;2022-12-07T03:28:35;9.45;;;4.63;;
28802;SDS011;15949;55.656;37.422;2022-12-07T03:34:03;11.15;;;4.20;;
28802;SDS011;15949;55.656;37.422;2022-12-07T03:44:42;7.57;;;4.60;;
28802;SDS011;15949;55.656;37.422;2022-12-07T03:49:50;17.83;;;5.25;;
28802;SDS011;15949;55.656;37.422;2022-12-07T04:00:37;12.18;;;5.38;;
28802;SDS011;15949;55.656;37.422;2022-12-07T04:05:43;11.55;;;4.95;;
28802;SDS011;15949;55.656;37.422;2022-12-07T04:10:49;15.35;;;5.57;;
28802;SDS011;15949;55.656;37.422;2022-12-07T04:15:55;23.70;;;5.88;;
28802;SDS011;15949;55.656;37.422;2022-12-07T04:21:01;15.13;;;7.57;;
28802;SDS011;15949;55.656;37.422;2022-12-07T04:26:06;12.65;;;6.43;;
28802;SDS011;15949;55.656;37.422;2022-12-07T04:31:12;11.98;;;4.97;;
28802;SDS011;15949;55.656;37.422;2022-12-07T04:36:18;13.70;;;5.68;;
28802;SDS011;15949;55.656;37.422;2022-12-07T04:41:25;14.75;;;5.47;;
28802;SDS011;15949;55.656;37.422;2022-12-07T04:51:39;18.63;;;6.10;;
28802;SDS011;15949;55.656;37.422;2022-12-07T04:56:45;16.52;;;5.85;;
28802;SDS011;15949;55.656;37.422;2022-12-07T05:01:51;13.65;;;5.00;;
28802;SDS011;15949;55.656;37.422;2022-12-07T05:06:57;13.18;;;5.60;;
28802;SDS011;15949;55.656;37.422;2022-12-07T05:12:03;12.27;;;5.00;;
28802;SDS011;15949;55.656;37.422;2022-12-07T05:17:08;12.13;;;4.72;;
28802;SDS011;15949;55.656;37.422;2022-12-07T05:22:14;9.82;;;4.55;;
28802;SDS011;15949;55.656;37.422;2022-12-07T05:27:20;8.82;;;4.82;;
28802;SDS011;15949;55.656;37.422;2022-12-07T05:32:26;10.73;;;4.78;;
28802;SDS011;15949;55.656;37.422;2022-12-07T05:37:32;12.02;;;4.90;;
28802;SDS011;15949;55.656;37.422;2022-12-07T05:42:37;10.90;;;5.03;;
28802;SDS011;15949;55.656;37.422;2022-12-07T05:47:44;8.18;;;4.43;;
28802;SDS011;15949;55.656;37.422;2022-12-07T05:52:49;13.98;;;5.50;;
28802;SDS011;15949;55.656;37.422;2022-12-07T05:57:55;9.10;;;4.70;;
28802;SDS011;15949;55.656;37.422;2022-12-07T06:03:19;14.40;;;5.53;;
28802;SDS011;15949;55.656;37.422;2022-12-07T06:08:25;12.07;;;4.78;;
28802;SDS011;15949;55.656;37.422;2022-12-07T06:13:30;10.43;;;4.80;;
28802;SDS011;15949;55.656;37.422;2022-12-07T06:18:36;13.25;;;4.95;;
28802;SDS011;15949;55.656;37.422;2022-12-07T06:23:42;9.43;;;4.88;;
28802;SDS011;15949;55.656;37.422;2022-12-07T06:28:47;13.25;;;5.32;;
28802;SDS011;15949;55.656;37.422;2022-12-07T06:33:59;13.68;;;6.07;;
28802;SDS011;15949;55.656;37.422;2022-12-07T06:39:06;12.35;;;5.68;;
28802;SDS011;15949;55.656;37.422;2022-12-07T06:44:14;9.98;;;5.57;;
28802;SDS011;15949;55.656;37.422;2022-12-07T06:49:19;11.15;;;5.70;;
28802;SDS011;15949;55.656;37.422;2022-12-07T06:54:25;12.82;;;6.25;;
28802;SDS011;15949;55.656;37.422;2022-12-07T06:59:31;12.07;;;6.10;;
28802;SDS011;15949;55.656;37.422;2022-12-07T07:04:37;10.60;;;5.70;;
28802;SDS011;15949;55.656;37.422;2022-12-07T07:09:43;12.75;;;5.88;;
28802;SDS011;15949;55.656;37.422;2022-12-07T07:14:48;14.52;;;6.20;;
28802;SDS011;15949;55.656;37.422;2022-12-07T07:19:54;12.65;;;5.95;;
28802;SDS011;15949;55.656;37.422;2022-12-07T07:25:00;14.07;;;6.45;;
28802;SDS011;15949;55.656;37.422;2022-12-07T07:30:07;13.30;;;6.97;;
28802;SDS011;15949;55.656;37.422;2022-12-07T07:35:13;16.52;;;7.18;;
28802;SDS011;15949;55.656;37.422;2022-12-07T07:40:19;14.30;;;6.60;;
28802;SDS011;15949;55.656;37.422;2022-12-07T07:45:25;13.67;;;7.00;;
28802;SDS011;15949;55.656;37.422;2022-12-07T07:50:32;15.52;;;7.20;;
28802;SDS011;15949;55.656;37.422;2022-12-07T07:55:37;15.93;;;6.82;;
28802;SDS011;15949;55.656;37.422;2022-12-07T08:00:43;16.58;;;6.88;;
28802;SDS011;15949;55.656;37.422;2022-12-07T08:05:49;19.58;;;8.07;;
28802;SDS011;15949;55.656;37.422;2022-12-07T08:10:54;21.38;;;7.60;;
28802;SDS011;15949;55.656;37.422;2022-12-07T08:16:07;18.13;;;8.25;;
28802;SDS011;15949;55.656;37.422;2022-12-07T08:21:14;24.92;;;8.18;;
28802;SDS011;15949;55.656;37.422;2022-12-07T08:26:20;17.85;;;8.90;;
28802;SDS011;15949;55.656;37.422;2022-12-07T08:31:26;18.73;;;8.52;;
28802;SDS011;15949;55.656;37.422;2022-12-07T08:36:32;17.92;;;7.38;;
28802;SDS011;15949;55.656;37.422;2022-12-07T08:41:38;18.38;;;7.85;;
28802;SDS011;15949;55.656;37.422;2022-12-07T08:46:48;19.60;;;7.97;;
28802;SDS011;15949;55.656;37.422;2022-12-07T08:51:58;14.88;;;7.53;;
28802;SDS011;15949;55.656;37.422;2022-12-07T08:57:04;18.25;;;8.05;;
28802;SDS011;15949;55.656;37.422;2022-12-07T09:02:11;18.45;;;8.00;;
28802;SDS011;15949;55.656;37.422;2022-12-07T09:07:16;15.55;;;7.03;;
28802;SDS011;15949;55.656;37.422;2022-12-07T09:12:22;16.17;;;6.90;;
28802;SDS011;15949;55.656;37.422;2022-12-07T09:17:31;18.60;;;7.72;;
28802;SDS011;15949;55.656;37.422;2022-12-07T09:22:38;14.80;;;7.32;;
28802;SDS011;15949;55.656;37.422;2022-12-07T09:27:43;12.85;;;6.60;;
28802;SDS011;15949;55.656;37.422;2022-12-07T09:32:49;19.40;;;6.32;;
28802;SDS011;15949;55.656;37.422;2022-12-07T09:37:54;12.15;;;6.07;;
28802;SDS011;15949;55.656;37.422;2022-12-07T09:43:00;16.98;;;7.07;;
28802;SDS011;15949;55.656;37.422;2022-12-07T09:48:08;15.68;;;6.20;;
28802;SDS011;15949;55.656;37.422;2022-12-07T09:53:30;19.95;;;6.68;;
28802;SDS011;15949;55.656;37.422;2022-12-07T09:58:38;15.05;;;6.57;;
28802;SDS011;15949;55.656;37.422;2022-12-07T10:03:54;22.27;;;6.20;;
28802;SDS011;15949;55.656;37.422;2022-12-07T10:09:10;16.50;;;5.90;;
28802;SDS011;15949;55.656;37.422;2022-12-07T10:14:18;13.93;;;6.15;;
28802;SDS011;15949;55.656;37.422;2022-12-07T10:19:30;14.00;;;6.35;;
28802;SDS011;15949;55.656;37.422;2022-12-07T10:24:39;15.65;;;6.20;;
28802;SDS011;15949;55.656;37.422;2022-12-07T10:29:50;16.88;;;6.63;;
28802;SDS011;15949;55.656;37.422;2022-12-07T10:40:35;12.98;;;6.03;;
28802;SDS011;15949;55.656;37.422;2022-12-07T10:45:53;13.25;;;5.40;;
28802;SDS011;15949;55.656;37.422;2022-12-07T11:29:24;14.13;;;6.45;;
28802;SDS011;15949;55.656;37.422;2022-12-07T11:35:24;13.77;;;6.35;;
28802;SDS011;15949;55.656;37.422;2022-12-07T11:40:29;16.08;;;6.90;;
28802;SDS011;15949;55.656;37.422;2022-12-07T11:45:41;12.50;;;6.10;;
28802;SDS011;15949;55.656;37.422;2022-12-07T11:50:53;14.40;;;6.97;;
28802;SDS011;15949;55.656;37.422;2022-12-07T12:06:42;16.50;;;7.22;;
28802;SDS011;15949;55.656;37.422;2022-12-07T12:12:04;19.80;;;8.07;;
28802;SDS011;15949;55.656;37.422;2022-12-07T12:22:37;16.83;;;8.27;;
28802;SDS011;15949;55.656;37.422;2022-12-07T12:27:47;17.95;;;7.82;;
28802;SDS011;15949;55.656;37.422;2022-12-07T12:32:54;16.42;;;8.38;;
28802;SDS011;15949;55.656;37.422;2022-12-07T12:38:24;17.13;;;8.55;;
28802;SDS011;15949;55.656;37.422;2022-12-07T12:43:40;15.60;;;8.70;;
28802;SDS011;15949;55.656;37.422;2022-12-07T12:48:52;17.63;;;8.45;;
28802;SDS011;15949;55.656;37.422;2022-12-07T12:54:08;27.35;;;9.57;;
28802;SDS011;15949;55.656;37.422;2022-12-07T12:59:29;20.40;;;9.57;;
28802;SDS011;15949;55.656;37.422;2022-12-07T13:09:53;17.73;;;8.68;;
28802;SDS011;15949;55.656;37.422;2022-12-07T13:14:59;18.63;;;7.95;;
28802;SDS011;15949;55.656;37.422;2022-12-07T13:20:05;20.75;;;9.77;;
28802;SDS011;15949;55.656;37.422;2022-12-07T13:36:19;22.13;;;8.95;;
28802;SDS011;15949;55.656;37.422;2022-12-07T13:41:26;26.10;;;9.43;;
28802;SDS011;15949;55.656;37.422;2022-12-07T13:52:13;20.75;;;9.25;;
28802;SDS011;15949;55.656;37.422;2022-12-07T13:57:19;22.30;;;9.85;;
28802;SDS011;15949;55.656;37.422;2022-12-07T14:02:26;19.73;;;8.75;;
28802;SDS011;15949;55.656;37.422;2022-12-07T14:07:34;20.23;;;8.90;;
28802;SDS011;15949;55.656;37.422;2022-12-07T14:12:41;24.20;;;10.05;;
28802;SDS011;15949;55.656;37.422;2022-12-07T14:17:51;18.35;;;9.05;;
28802;SDS011;15949;55.656;37.422;2022-12-07T14:22:58;22.27;;;9.55;;
28802;SDS011;15949;55.656;37.422;2022-12-07T14:28:04;18.70;;;9.02;;
28802;SDS011;15949;55.656;37.422;2022-12-07T14:33:10;19.38;;;8.77;;
28802;SDS011;15949;55.656;37.422;2022-12-07T14:38:15;17.00;;;8.73;;
28802;SDS011;15949;55.656;37.422;2022-12-07T14:43:23;15.55;;;7.10;;
28802;SDS011;15949;55.656;37.422;2022-12-07T14:48:29;19.13;;;9.02;;
28802;SDS011;15949;55.656;37.422;2022-12-07T14:53:35;18.02;;;8.98;;
28802;SDS011;15949;55.656;37.422;2022-12-07T14:58:44;22.38;;;9.40;;
28802;SDS011;15949;55.656;37.422;2022-12-07T15:03:50;20.05;;;8.80;;
28802;SDS011;15949;55.656;37.422;2022-12-07T15:08:55;16.38;;;9.07;;
28802;SDS011;15949;55.656;37.422;2022-12-07T15:14:01;18.73;;;8.98;;
28802;SDS011;15949;55.656;37.422;2022-12-07T15:19:20;24.15;;;9.68;;
28802;SDS011;15949;55.656;37.422;2022-12-07T15:24:31;20.95;;;10.10;;
28802;SDS011;15949;55.656;37.422;2022-12-07T15:29:36;19.35;;;9.02;;
28802;SDS011;15949;55.656;37.422;2022-12-07T15:34:42;20.98;;;9.27;;
28802;SDS011;15949;55.656;37.422;2022-12-07T15:39:47;22.15;;;9.70;;
28802;SDS011;15949;55.656;37.422;2022-12-07T15:44:53;23.75;;;9.57;;
28802;SDS011;15949;55.656;37.422;2022-12-07T15:50:12;25.25;;;9.80;;
28802;SDS011;15949;55.656;37.422;2022-12-07T15:55:19;18.27;;;8.95;;
28802;SDS011;15949;55.656;37.422;2022-12-07T16:00:25;17.92;;;9.07;;
28802;SDS011;15949;55.656;37.422;2022-12-07T16:05:30;18.67;;;8.20;;
28802;SDS011;15949;55.656;37.422;2022-12-07T16:10:36;22.30;;;9.00;;
28802;SDS011;15949;55.656;37.422;2022-12-07T16:15:42;19.90;;;8.70;;
28802;SDS011;15949;55.656;37.422;2022-12-07T16:20:48;21.55;;;8.35;;
28802;SDS011;15949;55.656;37.422;2022-12-07T16:25:54;20.25;;;9.00;;
28802;SDS011;15949;55.656;37.422;2022-12-07T16:31:01;22.08;;;9.02;;
28802;SDS011;15949;55.656;37.422;2022-12-07T16:36:08;19.80;;;8.98;;
28802;SDS011;15949;55.656;37.422;2022-12-07T16:41:14;18.50;;;9.38;;
28802;SDS011;15949;55.656;37.422;2022-12-07T16:46:20;20.98;;;9.07;;
28802;SDS011;15949;55.656;37.422;2022-12-07T16:51:26;12.75;;;6.45;;
28802;SDS011;15949;55.656;37.422;2022-12-07T16:56:31;18.33;;;8.23;;
28802;SDS011;15949;55.656;37.422;2022-12-07T17:01:37;21.35;;;9.85;;
28802;SDS011;15949;55.656;37.422;2022-12-07T17:06:42;19.52;;;9.60;;
28802;SDS011;15949;55.656;37.422;2022-12-07T17:11:48;20.00;;;9.85;;
28802;SDS011;15949;55.656;37.422;2022-12-07T17:16:54;18.77;;;9.50;;
28802;SDS011;15949;55.656;37.422;2022-12-07T17:21:59;22.73;;;9.93;;
28802;SDS011;15949;55.656;37.422;2022-12-07T17:27:05;20.02;;;9.23;;
28802;SDS011;15949;55.656;37.422;2022-12-07T17:32:11;19.65;;;9.35;;
28802;SDS011;15949;55.656;37.422;2022-12-07T17:37:16;20.10;;;8.93;;
28802;SDS011;15949;55.656;37.422;2022-12-07T17:42:25;17.63;;;8.63;;
28802;SDS011;15949;55.656;37.422;2022-12-07T17:47:40;18.10;;;8.40;;
28802;SDS011;15949;55.656;37.422;2022-12-07T17:52:46;17.92;;;9.35;;
28802;SDS011;15949;55.656;37.422;2022-12-07T17:58:10;19.25;;;8.63;;
28802;SDS011;15949;55.656;37.422;2022-12-07T18:03:16;19.73;;;9.25;;
28802;SDS011;15949;55.656;37.422;2022-12-07T18:08:22;23.83;;;9.63;;
28802;SDS011;15949;55.656;37.422;2022-12-07T18:13:27;18.83;;;8.73;;
28802;SDS011;15949;55.656;37.422;2022-12-07T18:18:42;19.85;;;8.85;;
28802;SDS011;15949;55.656;37.422;2022-12-07T18:23:50;22.27;;;8.68;;
28802;SDS011;15949;55.656;37.422;2022-12-07T18:28:58;25.83;;;11.67;;
28802;SDS011;15949;55.656;37.422;2022-12-07T18:34:05;17.85;;;8.32;;
28802;SDS011;15949;55.656;37.422;2022-12-07T18:39:16;18.80;;;8.93;;
28802;SDS011;15949;55.656;37.422;2022-12-07T18:44:23;21.33;;;9.07;;
28802;SDS011;15949;55.656;37.422;2022-12-07T18:49:29;20.60;;;8.75;;
28802;SDS011;15949;55.656;37.422;2022-12-07T18:54:34;20.77;;;8.75;;
28802;SDS011;15949;55.656;37.422;2022-12-07T18:59:40;19.33;;;7.32;;
28802;SDS011;15949;55.656;37.422;2022-12-07T19:04:53;17.63;;;8.15;;
28802;SDS011;15949;55.656;37.422;2022-12-07T19:09:59;16.08;;;8.30;;
28802;SDS011;15949;55.656;37.422;2022-12-07T19:15:05;19.75;;;8.18;;
28802;SDS011;15949;55.656;37.422;2022-12-07T19:20:12;18.40;;;8.57;;
28802;SDS011;15949;55.656;37.422;2022-12-07T19:25:19;15.02;;;7.97;;
28802;SDS011;15949;55.656;37.422;2022-12-07T19:30:24;21.13;;;8.68;;
28802;SDS011;15949;55.656;37.422;2022-12-07T19:35:30;19.17;;;8.02;;
28802;SDS011;15949;55.656;37.422;2022-12-07T19:40:36;17.48;;;8.25;;
28802;SDS011;15949;55.656;37.422;2022-12-07T19:45:41;16.55;;;7.75;;
28802;SDS011;15949;55.656;37.422;2022-12-07T19:50:47;15.13;;;6.65;;
28802;SDS011;15949;55.656;37.422;2022-12-07T19:55:52;17.27;;;8.10;;
28802;SDS011;15949;55.656;37.422;2022-12-07T20:01:02;19.00;;;8.18;;
28802;SDS011;15949;55.656;37.422;2022-12-07T20:06:09;13.85;;;7.45;;
28802;SDS011;15949;55.656;37.422;2022-12-07T20:11:17;18.38;;;8.75;;
28802;SDS011;15949;55.656;37.422;2022-12-07T20:16:43;18.25;;;7.35;;
28802;SDS011;15949;55.656;37.422;2022-12-07T20:21:50;16.15;;;6.63;;
28802;SDS011;15949;55.656;37.422;2022-12-07T20:26:55;15.02;;;7.28;;
28802;SDS011;15949;55.656;37.422;2022-12-07T20:32:01;17.85;;;7.85;;
28802;SDS011;15949;55.656;37.422;2022-12-07T20:37:07;17.05;;;7.93;;
28802;SDS011;15949;55.656;37.422;2022-12-07T20:42:13;15.63;;;7.63;;
28802;SDS011;15949;55.656;37.422;2022-12-07T20:47:37;22.45;;;7.68;;
28802;SDS011;15949;55.656;37.422;2022-12-07T20:52:43;16.15;;;7.32;;
28802;SDS011;15949;55.656;37.422;2022-12-07T20:57:48;15.63;;;7.88;;
28802;SDS011;15949;55.656;37.422;2022-12-07T21:02:54;14.15;;;6.90;;
28802;SDS011;15949;55.656;37.422;2022-12-07T21:08:01;15.05;;;6.03;;
28802;SDS011;15949;55.656;37.422;2022-12-07T21:13:07;15.27;;;6.97;;
28802;SDS011;15949;55.656;37.422;2022-12-07T21:18:12;14.80;;;7.32;;
28802;SDS011;15949;55.656;37.422;2022-12-07T21:23:18;13.80;;;6.53;;
28802;SDS011;15949;55.656;37.422;2022-12-07T21:28:24;16.58;;;7.30;;
28802;SDS011;15949;55.656;37.422;2022-12-07T21:33:31;16.70;;;7.43;;
28802;SDS011;15949;55.656;37.422;2022-12-07T21:38:37;15.70;;;6.28;;
28802;SDS011;15949;55.656;37.422;2022-12-07T21:43:43;20.02;;;8.80;;
28802;SDS011;15949;55.656;37.422;2022-12-07T21:48:50;16.63;;;7.28;;
28802;SDS011;15949;55.656;37.422;2022-12-07T21:54:04;16.85;;;7.65;;
28802;SDS011;15949;55.656;37.422;2022-12-07T21:59:11;15.73;;;7.70;;
28802;SDS011;15949;55.656;37.422;2022-12-07T22:04:20;15.80;;;7.68;;
28802;SDS011;15949;55.656;37.422;2022-12-07T22:09:28;15.27;;;7.65;;
28802;SDS011;15949;55.656;37.422;2022-12-07T22:14:34;18.90;;;8.30;;
28802;SDS011;15949;55.656;37.422;2022-12-07T22:19:58;17.10;;;7.72;;
28802;SDS011;15949;55.656;37.422;2022-12-07T22:25:04;15.95;;;7.65;;
28802;SDS011;15949;55.656;37.422;2022-12-07T22:30:10;18.25;;;7.95;;
28802;SDS011;15949;55.656;37.422;2022-12-07T22:35:16;18.90;;;8.48;;
28802;SDS011;15949;55.656;37.422;2022-12-07T22:40:22;18.75;;;8.50;;
28802;SDS011;15949;55.656;37.422;2022-12-07T22:45:28;17.67;;;8.45;;
28802;SDS011;15949;55.656;37.422;2022-12-07T22:50:33;18.17;;;8.40;;
28802;SDS011;15949;55.656;37.422;2022-12-07T22:55:40;19.02;;;8.65;;
28802;SDS011;15949;55.656;37.422;2022-12-07T23:00:45;20.15;;;8.65;;
28802;SDS011;15949;55.656;37.422;2022-12-07T23:05:51;18.65;;;9.10;;
28802;SDS011;15949;55.656;37.422;2022-12-07T23:10:57;20.45;;;9.15;;
28802;SDS011;15949;55.656;37.422;2022-12-07T23:16:11;19.27;;;9.05;;
28802;SDS011;15949;55.656;37.422;2022-12-07T23:21:18;20.95;;;9.55;;
28802;SDS011;15949;55.656;37.422;2022-12-07T23:26:23;20.63;;;8.93;;
28802;SDS011;15949;55.656;37.422;2022-12-07T23:31:29;24.50;;;10.07;;
28802;SDS011;15949;55.656;37.422;2022-12-07T23:36:35;19.73;;;9.63;;
28802;SDS011;15949;55.656;37.422;2022-12-07T23:41:40;21.48;;;9.07;;
28802;SDS011;15949;55.656;37.422;2022-12-07T23:46:46;16.30;;;9.18;;
28802;SDS011;15949;55.656;37.422;2022-12-07T23:51:51;19.70;;;9.68;;
28802;SDS011;15949;55.656;37.422;2022-12-07T23:56:57;19.75;;;10.15;;
